createdAt,value
2019-02-25T00:00:17.955Z,12.45
2019-02-25T00:02:47.228Z,15.15
2019-02-25T00:05:16.527Z,16.10
2019-02-25T00:07:45.759Z,16.15
2019-02-25T00:10:15.065Z,15.40
2019-02-25T00:12:44.367Z,16.15
2019-02-25T00:15:13.607Z,16.00
2019-02-25T00:17:42.860Z,15.83
2019-02-25T00:20:12.275Z,15.30
2019-02-25T00:22:41.491Z,15.45
2019-02-25T00:25:10.862Z,15.10
2019-02-25T00:27:40.119Z,16.05
2019-02-25T00:30:09.568Z,15.35
2019-02-25T00:32:38.804Z,15.50
2019-02-25T00:35:08.090Z,14.55
2019-02-25T00:37:37.312Z,14.70
2019-02-25T00:40:07.529Z,14.66
2019-02-25T00:42:36.742Z,14.93
2019-02-25T00:45:06.562Z,14.15
2019-02-25T00:47:35.826Z,13.65
2019-02-25T00:50:05.922Z,14.10
2019-02-25T00:52:35.192Z,13.83
2019-02-25T00:55:04.820Z,13.28
2019-02-25T00:57:34.111Z,13.32
2019-02-25T01:00:03.393Z,13.05
2019-02-25T01:02:32.645Z,13.13
2019-02-25T01:05:01.890Z,12.98
2019-02-25T01:07:31.124Z,13.75
2019-02-25T01:10:00.353Z,13.60
2019-02-25T01:12:29.608Z,13.58
2019-02-25T01:14:58.831Z,13.75
2019-02-25T01:17:28.081Z,13.48
2019-02-25T01:19:57.314Z,14.25
2019-02-25T01:22:26.580Z,14.05
2019-02-25T01:24:55.801Z,13.38
2019-02-25T01:27:25.106Z,13.35
2019-02-25T01:29:54.334Z,13.28
2019-02-25T01:32:23.570Z,13.85
2019-02-25T01:34:52.799Z,14.50
2019-02-25T01:37:22.024Z,15.13
2019-02-25T01:39:51.256Z,14.33
2019-02-25T01:42:20.525Z,14.35
2019-02-25T01:44:49.762Z,14.78
2019-02-25T01:47:19.022Z,13.85
2019-02-25T01:49:48.277Z,14.00
2019-02-25T01:52:17.482Z,13.93
2019-02-25T01:54:46.803Z,13.78
2019-02-25T01:57:16.118Z,14.23
2019-02-25T01:59:45.461Z,13.40
2019-02-25T02:02:14.758Z,13.10
2019-02-25T02:04:44.044Z,13.20
2019-02-25T02:07:13.270Z,13.62
2019-02-25T02:09:42.524Z,13.95
2019-02-25T02:12:11.745Z,13.00
2019-02-25T02:14:41.012Z,13.18
2019-02-25T02:17:10.253Z,13.15
2019-02-25T02:19:39.497Z,13.58
2019-02-25T02:22:08.733Z,13.85
2019-02-25T02:24:37.994Z,13.68
2019-02-25T02:27:07.233Z,13.55
2019-02-25T02:29:36.464Z,13.53
2019-02-25T02:32:05.708Z,13.70
2019-02-25T02:34:34.961Z,13.70
2019-02-25T02:37:04.226Z,13.25
2019-02-25T02:39:33.466Z,13.32
2019-02-25T02:42:23.892Z,12.78
2019-02-25T02:45:12.441Z,13.75
2019-02-25T02:47:51.125Z,13.35
2019-02-25T02:50:24.656Z,13.10
2019-02-25T02:52:53.895Z,13.43
2019-02-25T02:55:23.136Z,13.00
2019-02-25T02:57:52.460Z,12.70
2019-02-25T03:00:21.718Z,12.87
2019-02-25T03:02:50.944Z,13.45
2019-02-25T03:05:20.294Z,13.73
2019-02-25T03:07:49.536Z,13.48
2019-02-25T03:10:19.303Z,13.73
2019-02-25T03:12:48.562Z,13.60
2019-02-25T03:15:19.245Z,13.43
2019-02-25T03:17:48.463Z,14.53
2019-02-25T03:20:17.671Z,14.37
2019-02-25T03:22:46.896Z,14.63
2019-02-25T03:25:16.939Z,14.30
2019-02-25T03:27:46.337Z,13.55
2019-02-25T03:30:17.508Z,13.67
2019-02-25T03:32:46.814Z,13.55
2019-02-25T03:35:17.703Z,13.57
2019-02-25T03:37:46.926Z,13.38
2019-02-25T03:40:17.703Z,13.67
2019-02-25T03:42:46.920Z,13.65
2019-02-25T03:45:18.536Z,14.50
2019-02-25T03:47:47.826Z,14.47
2019-02-25T03:50:17.045Z,14.60
2019-02-25T03:52:46.324Z,14.43
2019-02-25T03:55:19.515Z,14.53
2019-02-25T03:57:49.751Z,14.15
2019-02-25T04:00:21.708Z,14.80
2019-02-25T04:02:50.978Z,14.50
2019-02-25T04:05:20.220Z,15.57
2019-02-25T04:07:49.450Z,14.80
2019-02-25T04:10:18.707Z,15.57
2019-02-25T04:12:47.958Z,14.60
2019-02-25T04:15:22.859Z,14.63
2019-02-25T04:17:52.090Z,14.47
2019-02-25T04:20:21.308Z,14.85
2019-02-25T04:22:50.556Z,14.63
2019-02-25T04:25:19.826Z,14.73
2019-02-25T04:27:49.101Z,15.88
2019-02-25T04:30:18.443Z,15.33
2019-02-25T04:32:47.668Z,14.60
2019-02-25T04:35:16.942Z,15.23
2019-02-25T04:37:46.166Z,15.50
2019-02-25T04:40:15.454Z,15.47
2019-02-25T04:42:44.666Z,15.20
2019-02-25T04:45:15.670Z,15.87
2019-02-25T04:47:44.897Z,15.90
2019-02-25T04:50:14.203Z,16.00
2019-02-25T04:52:43.422Z,15.58
2019-02-25T04:55:13.412Z,15.83
2019-02-25T04:57:42.663Z,15.48
2019-02-25T05:00:14.223Z,15.93
2019-02-25T05:02:43.632Z,15.15
2019-02-25T05:05:13.141Z,16.27
2019-02-25T05:07:42.396Z,16.55
2019-02-25T05:10:12.748Z,16.40
2019-02-25T05:12:45.883Z,20.68
2019-02-25T05:15:16.939Z,18.40
2019-02-25T05:17:46.154Z,17.07
2019-02-25T05:20:15.418Z,19.73
2019-02-25T05:22:44.843Z,16.82
2019-02-25T05:25:14.296Z,17.60
2019-02-25T05:27:43.543Z,16.12
2019-02-25T05:30:12.829Z,17.87
2019-02-25T05:32:42.145Z,15.75
2019-02-25T05:35:11.951Z,17.02
2019-02-25T05:37:41.330Z,17.32
2019-02-25T05:40:12.935Z,29.55
2019-02-25T05:42:42.187Z,17.90
2019-02-25T05:45:11.563Z,16.90
2019-02-25T05:47:40.788Z,17.23
2019-02-25T05:50:12.241Z,17.32
2019-02-25T05:52:41.470Z,16.95
2019-02-25T05:55:12.125Z,18.30
2019-02-25T05:57:41.363Z,18.50
2019-02-25T06:00:17.930Z,18.35
2019-02-25T06:02:47.184Z,17.87
2019-02-25T06:05:19.364Z,19.00
2019-02-25T06:07:48.605Z,19.15
2019-02-25T06:10:17.819Z,18.97
2019-02-25T06:12:47.071Z,19.17
2019-02-25T06:15:16.357Z,18.50
2019-02-25T06:17:45.614Z,18.15
2019-02-25T06:20:15.149Z,18.73
2019-02-25T06:22:44.388Z,18.42
2019-02-25T06:25:13.805Z,18.13
2019-02-25T06:27:43.228Z,18.70
2019-02-25T06:30:14.941Z,18.70
2019-02-25T06:32:44.198Z,18.52
2019-02-25T06:35:13.711Z,18.17
2019-02-25T06:37:43.059Z,19.27
2019-02-25T06:40:15.574Z,19.45
2019-02-25T06:42:44.541Z,19.52
2019-02-25T06:45:15.569Z,18.57
2019-02-25T06:47:44.816Z,19.30
2019-02-25T06:50:14.043Z,19.60
2019-02-25T06:52:43.332Z,19.55
2019-02-25T06:55:13.922Z,19.30
2019-02-25T06:57:43.133Z,19.90
2019-02-25T07:00:14.843Z,20.08
2019-02-25T07:02:44.093Z,19.67
2019-02-25T07:05:19.185Z,19.77
2019-02-25T07:08:06.134Z,19.73
2019-02-25T07:11:00.224Z,19.02
2019-02-25T07:13:46.985Z,18.95
2019-02-25T07:16:25.203Z,19.00
2019-02-25T07:19:25.424Z,18.70
2019-02-25T07:22:15.861Z,19.00
2019-02-25T07:24:55.320Z,18.65
2019-02-25T07:27:42.220Z,20.10
2019-02-25T07:30:42.623Z,21.07
2019-02-25T07:33:48.759Z,21.42
2019-02-25T07:36:26.811Z,21.93
2019-02-25T07:39:06.807Z,21.40
2019-02-25T07:41:53.750Z,22.87
2019-02-25T07:44:36.269Z,23.77
2019-02-25T07:47:33.489Z,22.70
2019-02-25T07:50:14.238Z,22.00
2019-02-25T07:53:02.423Z,20.25
2019-02-25T07:56:05.832Z,20.45
2019-02-25T07:58:54.021Z,20.57
2019-02-25T08:01:39.605Z,19.42
2019-02-25T08:04:26.805Z,20.88
2019-02-25T08:07:13.495Z,19.87
2019-02-25T08:10:07.847Z,19.23
2019-02-25T08:12:52.576Z,18.82
2019-02-25T08:15:38.709Z,19.63
2019-02-25T08:18:21.732Z,19.25
2019-02-25T08:21:15.741Z,19.40
2019-02-25T08:23:50.977Z,18.55
2019-02-25T08:26:39.188Z,19.30
2019-02-25T08:29:19.129Z,20.12
2019-02-25T08:32:07.387Z,19.62
2019-02-25T08:34:54.305Z,18.42
2019-02-25T08:38:14.100Z,18.48
2019-02-25T08:41:08.981Z,17.82
2019-02-25T08:43:55.920Z,16.87
2019-02-25T08:46:38.931Z,16.67
2019-02-25T08:49:14.531Z,16.15
2019-02-25T08:51:43.772Z,14.10
2019-02-25T08:54:13.080Z,13.43
2019-02-25T08:56:42.291Z,13.32
2019-02-25T08:59:11.514Z,13.03
2019-02-25T09:01:40.823Z,12.13
2019-02-25T09:04:10.095Z,12.43
2019-02-25T09:06:39.324Z,11.88
2019-02-25T09:09:08.615Z,13.08
2019-02-25T09:11:37.869Z,12.30
2019-02-25T09:14:07.149Z,12.75
2019-02-25T09:16:36.451Z,12.28
2019-02-25T09:19:05.680Z,11.65
2019-02-25T09:21:34.930Z,11.15
2019-02-25T09:24:04.281Z,11.65
2019-02-25T09:26:33.563Z,11.12
2019-02-25T09:29:02.816Z,9.93
2019-02-25T09:31:32.077Z,9.50
2019-02-25T09:34:01.319Z,9.08
2019-02-25T09:36:30.577Z,10.55
2019-02-25T09:38:59.808Z,9.53
2019-02-25T09:41:30.240Z,9.45
2019-02-25T09:43:59.666Z,9.10
2019-02-25T09:46:28.964Z,9.80
2019-02-25T09:48:58.188Z,9.05
2019-02-25T09:51:27.445Z,9.13
2019-02-25T09:53:56.695Z,8.25
2019-02-25T09:56:25.970Z,7.75
2019-02-25T09:58:55.220Z,7.78
2019-02-25T10:01:24.498Z,7.12
2019-02-25T10:03:53.709Z,7.30
2019-02-25T10:06:22.954Z,5.85
2019-02-25T10:08:52.233Z,5.62
2019-02-25T10:11:21.487Z,6.08
2019-02-25T10:13:51.935Z,5.45
2019-02-25T10:16:21.191Z,6.08
2019-02-25T10:18:50.462Z,5.50
2019-02-25T10:21:19.745Z,5.45
2019-02-25T10:23:49.010Z,5.55
2019-02-25T10:26:18.255Z,5.12
2019-02-25T10:28:47.542Z,4.60
2019-02-25T10:31:17.471Z,4.80
2019-02-25T10:33:46.821Z,5.03
2019-02-25T10:36:16.036Z,4.53
2019-02-25T10:38:45.288Z,4.55
2019-02-25T10:41:14.497Z,4.70
2019-02-25T10:43:43.753Z,4.30
2019-02-25T10:46:15.119Z,4.35
2019-02-25T10:48:43.985Z,4.70
2019-02-25T10:51:13.736Z,4.90
2019-02-25T10:53:44.760Z,5.08
2019-02-25T10:56:21.577Z,5.28
2019-02-25T10:58:50.343Z,4.72
2019-02-25T11:01:22.127Z,5.45
2019-02-25T11:03:52.586Z,4.97
2019-02-25T11:06:21.624Z,4.97
2019-02-25T11:08:57.447Z,5.15
2019-02-25T11:11:30.115Z,5.30
2019-02-25T11:14:00.933Z,5.87
2019-02-25T11:16:30.390Z,5.70
2019-02-25T11:19:00.917Z,6.17
2019-02-25T11:21:30.185Z,5.65
2019-02-25T11:23:59.459Z,6.03
2019-02-25T11:26:30.531Z,5.87
2019-02-25T11:28:59.724Z,6.22
2019-02-25T11:31:29.262Z,5.90
2019-02-25T11:34:00.531Z,6.40
2019-02-25T11:36:29.450Z,6.65
2019-02-25T11:39:00.689Z,6.62
2019-02-25T11:41:31.679Z,7.30
2019-02-25T11:44:00.684Z,6.70
2019-02-25T11:46:30.017Z,7.10
2019-02-25T11:48:59.302Z,6.85
2019-02-25T11:51:28.569Z,6.65
2019-02-25T11:53:59.445Z,5.83
2019-02-25T11:56:28.868Z,5.58
2019-02-25T11:58:58.141Z,5.83
2019-02-25T12:01:27.411Z,5.35
2019-02-25T12:03:56.691Z,6.00
2019-02-25T12:06:26.020Z,6.22
2019-02-25T12:08:55.269Z,5.90
2019-02-25T12:11:24.573Z,6.33
2019-02-25T12:13:53.839Z,6.35
2019-02-25T12:16:23.116Z,6.17
2019-02-25T12:18:52.369Z,6.28
2019-02-25T12:21:22.772Z,6.00
2019-02-25T12:23:52.028Z,5.40
2019-02-25T12:26:21.352Z,5.70
2019-02-25T12:28:50.640Z,5.40
2019-02-25T12:31:19.917Z,4.83
2019-02-25T12:33:49.243Z,4.70
2019-02-25T12:36:18.488Z,5.33
2019-02-25T12:38:47.784Z,5.25
2019-02-25T12:41:17.029Z,4.22
2019-02-25T12:43:46.304Z,4.30
2019-02-25T12:46:15.574Z,4.70
2019-02-25T12:48:44.860Z,4.58
2019-02-25T12:51:14.097Z,4.55
2019-02-25T12:53:43.382Z,4.50
2019-02-25T12:56:12.631Z,4.67
2019-02-25T12:58:41.895Z,4.92
2019-02-25T13:01:11.213Z,4.90
2019-02-25T13:03:40.491Z,4.72
2019-02-25T13:06:09.700Z,4.47
2019-02-25T13:08:39.014Z,4.15
2019-02-25T13:11:08.294Z,3.47
2019-02-25T13:13:37.590Z,3.90
2019-02-25T13:19:47.085Z,3.50
2019-02-25T13:22:16.402Z,3.33
2019-02-25T13:24:45.653Z,3.35
2019-02-25T13:27:14.991Z,4.30
2019-02-25T13:29:44.287Z,3.62
2019-02-25T13:32:13.515Z,3.37
2019-02-25T13:34:42.842Z,3.40
2019-02-25T13:37:12.142Z,3.45
2019-02-25T13:39:41.425Z,2.95
2019-02-25T13:42:10.667Z,3.20
2019-02-25T13:44:40.021Z,2.87
2019-02-25T13:47:09.268Z,3.30
2019-02-25T13:49:38.552Z,3.20
2019-02-25T13:52:08.090Z,3.17
2019-02-25T13:54:37.407Z,3.30
2019-02-25T13:57:06.647Z,3.33
2019-02-25T13:59:35.964Z,3.20
2019-02-25T14:02:05.202Z,4.20
2019-02-25T14:04:34.532Z,2.92
2019-02-25T14:07:03.804Z,3.80
2019-02-25T14:09:33.143Z,3.00
2019-02-25T14:12:02.450Z,3.15
2019-02-25T14:14:31.732Z,2.77
2019-02-25T14:17:01.005Z,2.90
2019-02-25T14:19:30.292Z,3.27
2019-02-25T14:21:59.591Z,2.75
2019-02-25T14:24:29.277Z,3.45
2019-02-25T14:26:58.647Z,3.27
2019-02-25T14:29:27.916Z,4.03
2019-02-25T14:31:57.261Z,3.40
2019-02-25T14:34:26.511Z,3.83
2019-02-25T14:36:57.181Z,3.83
2019-02-25T14:39:28.465Z,3.52
2019-02-25T14:41:59.226Z,3.70
2019-02-25T14:44:32.416Z,3.22
2019-02-25T14:47:02.686Z,3.58
2019-02-25T14:49:35.264Z,3.35
2019-02-25T14:52:04.781Z,3.62
2019-02-25T14:54:34.326Z,3.50
2019-02-25T14:57:03.657Z,3.50
2019-02-25T14:59:32.926Z,3.25
2019-02-25T15:02:03.946Z,3.20
2019-02-25T15:04:35.078Z,3.37
2019-02-25T15:07:06.303Z,3.60
2019-02-25T15:09:37.043Z,3.10
2019-02-25T15:12:07.508Z,3.70
2019-02-25T15:14:37.196Z,3.42
2019-02-25T15:17:08.297Z,3.42
2019-02-25T15:19:38.717Z,3.62
2019-02-25T15:22:08.648Z,3.63
2019-02-25T15:24:38.319Z,4.20
2019-02-25T15:27:09.306Z,4.17
2019-02-25T15:29:39.798Z,4.30
2019-02-25T15:32:09.593Z,4.77
2019-02-25T15:34:38.911Z,4.78
2019-02-25T15:37:09.504Z,4.85
2019-02-25T15:39:41.804Z,9.43
2019-02-25T15:42:10.187Z,5.60
2019-02-25T15:44:40.373Z,4.80
2019-02-25T15:47:11.269Z,4.90
2019-02-25T15:49:41.753Z,5.22
2019-02-25T15:52:14.650Z,5.08
2019-02-25T15:54:43.586Z,5.30
2019-02-25T15:57:13.106Z,5.47
2019-02-25T15:59:42.481Z,5.50
2019-02-25T16:02:14.194Z,6.20
2019-02-25T16:04:42.770Z,5.25
2019-02-25T16:07:12.140Z,5.47
2019-02-25T16:09:41.415Z,5.25
2019-02-25T16:12:12.206Z,5.53
2019-02-25T16:14:42.185Z,5.95
2019-02-25T16:17:12.494Z,5.78
2019-02-25T16:19:47.332Z,5.80
2019-02-25T16:22:12.806Z,5.60
2019-02-25T16:24:43.603Z,6.08
2019-02-25T16:27:12.979Z,5.45
2019-02-25T16:29:42.250Z,5.30
2019-02-25T16:32:11.520Z,5.57
2019-02-25T16:34:42.586Z,5.62
2019-02-25T16:37:12.227Z,5.53
2019-02-25T16:39:41.572Z,5.37
2019-02-25T16:42:10.870Z,5.28
2019-02-25T16:44:40.109Z,5.47
2019-02-25T16:47:09.768Z,5.10
2019-02-25T16:49:40.483Z,5.00
2019-02-25T16:52:09.999Z,5.35
2019-02-25T16:54:39.258Z,4.87
2019-02-25T16:57:08.731Z,5.10
2019-02-25T16:59:38.075Z,5.58
2019-02-25T17:02:09.669Z,5.97
2019-02-25T17:04:38.486Z,5.97
2019-02-25T17:07:07.787Z,6.05
2019-02-25T17:09:39.150Z,6.47
2019-02-25T17:12:08.928Z,6.60
2019-02-25T17:14:40.553Z,7.55
2019-02-25T17:17:09.486Z,6.55
2019-02-25T17:19:38.837Z,6.87
2019-02-25T17:22:08.188Z,7.62
2019-02-25T17:24:38.793Z,7.62
2019-02-25T17:27:11.472Z,7.67
2019-02-25T17:29:40.611Z,7.80
2019-02-25T17:32:11.002Z,8.28
2019-02-25T17:34:41.409Z,8.15
2019-02-25T17:37:12.646Z,8.50
2019-02-25T17:39:42.616Z,7.95
2019-02-25T17:42:11.972Z,7.67
2019-02-25T17:44:41.637Z,8.03
2019-02-25T17:47:12.753Z,8.45
2019-02-25T17:49:43.301Z,9.50
2019-02-25T17:52:14.155Z,9.83
2019-02-25T17:54:43.912Z,10.88
2019-02-25T17:57:14.178Z,11.55
2019-02-25T17:59:44.117Z,11.53
2019-02-25T18:02:14.713Z,16.77
2019-02-25T18:04:44.073Z,10.05
2019-02-25T18:07:13.335Z,8.90
2019-02-25T18:09:44.381Z,10.90
2019-02-25T18:12:13.658Z,11.30
2019-02-25T18:14:43.573Z,12.85
2019-02-25T18:17:16.865Z,11.83
2019-02-25T18:19:45.707Z,10.98
2019-02-25T18:22:17.295Z,11.35
2019-02-25T18:24:46.908Z,11.53
2019-02-25T18:27:16.474Z,11.50
2019-02-25T18:29:46.540Z,11.55
2019-02-25T18:32:16.780Z,12.35
2019-02-25T18:34:46.398Z,11.97
2019-02-25T18:37:17.573Z,12.65
2019-02-25T18:39:47.945Z,12.53
2019-02-25T18:42:20.132Z,12.80
2019-02-25T18:44:50.809Z,14.85
2019-02-25T18:47:20.831Z,14.38
2019-02-25T18:49:52.106Z,15.15
2019-02-25T18:52:22.333Z,17.27
2019-02-25T18:54:51.720Z,17.30
2019-02-25T18:57:22.932Z,17.00
2019-02-25T18:59:52.205Z,16.80
2019-02-25T19:02:21.612Z,17.37
2019-02-25T19:04:50.951Z,16.00
2019-02-25T19:07:22.661Z,14.50
2019-02-25T19:09:53.838Z,13.88
2019-02-25T19:12:23.281Z,14.70
2019-02-25T19:14:55.139Z,14.63
2019-02-25T19:17:25.419Z,15.87
2019-02-25T19:19:54.731Z,13.85
2019-02-25T19:22:24.488Z,15.53
2019-02-25T19:24:53.857Z,14.00
2019-02-25T19:27:25.023Z,12.70
2019-02-25T19:29:58.602Z,12.88
2019-02-25T19:32:26.071Z,15.50
2019-02-25T19:34:56.702Z,20.10
2019-02-25T19:37:31.201Z,17.00
2019-02-25T19:39:57.807Z,16.55
2019-02-25T19:42:29.063Z,13.45
2019-02-25T19:45:02.696Z,13.98
2019-02-25T19:47:30.799Z,14.00
2019-02-25T19:50:02.224Z,14.15
2019-02-25T19:52:34.730Z,16.87
2019-02-25T19:55:05.646Z,17.85
2019-02-25T19:57:34.088Z,15.83
2019-02-25T20:00:03.402Z,14.70
2019-02-25T20:02:34.740Z,15.55
2019-02-25T20:05:04.695Z,15.65
2019-02-25T20:07:35.875Z,15.88
2019-02-25T20:10:06.001Z,15.15
2019-02-25T20:12:35.714Z,27.50
2019-02-25T20:15:09.078Z,24.75
2019-02-25T20:20:08.176Z,15.23
2019-02-25T20:22:38.794Z,15.33
2019-02-25T20:25:10.773Z,15.45
2019-02-25T20:27:40.802Z,15.68
2019-02-25T20:30:12.686Z,15.72
2019-02-25T20:32:42.902Z,15.67
2019-02-25T20:35:13.999Z,15.65
2019-02-25T20:37:46.383Z,15.40
2019-02-25T20:40:19.075Z,15.30
2019-02-25T20:42:49.048Z,16.15
2019-02-25T20:45:22.985Z,15.93
2019-02-25T20:50:21.164Z,16.90
2019-02-25T20:52:50.535Z,16.73
2019-02-25T20:55:19.945Z,16.77
2019-02-25T20:57:49.238Z,15.53
2019-02-25T21:00:20.016Z,15.77
2019-02-25T21:02:49.494Z,16.85
2019-02-25T21:05:21.857Z,17.23
2019-02-25T21:07:50.479Z,16.85
2019-02-25T21:10:22.533Z,17.90
2019-02-25T21:12:56.879Z,18.27
2019-02-25T21:15:26.059Z,18.30
2019-02-25T21:17:57.727Z,18.50
2019-02-25T21:20:28.871Z,17.20
2019-02-25T21:23:00.077Z,17.00
2019-02-25T21:25:29.124Z,17.67
2019-02-25T21:27:59.963Z,17.75
2019-02-25T21:30:29.974Z,17.62
2019-02-25T21:32:59.295Z,17.45
2019-02-25T21:35:30.143Z,19.02
2019-02-25T21:37:59.642Z,18.95
2019-02-25T21:40:30.133Z,18.82
2019-02-25T21:43:00.136Z,20.75
2019-02-25T21:45:32.105Z,20.32
2019-02-25T21:54:45.116Z,21.77
2019-02-25T21:57:33.454Z,21.00
2019-02-25T22:06:33.279Z,20.20
2019-02-25T22:11:49.398Z,23.00
2019-02-25T22:14:33.786Z,25.10
2019-02-25T22:17:32.955Z,23.98
2019-02-25T22:20:35.632Z,22.17
2019-02-25T22:23:34.909Z,22.35
2019-02-25T22:26:04.000Z,21.55
2019-02-25T22:28:34.834Z,22.02
2019-02-25T22:31:33.010Z,21.12
2019-02-25T22:34:31.425Z,21.23
2019-02-25T22:37:02.396Z,22.20
2019-02-25T22:39:35.045Z,22.32
2019-02-25T22:42:35.545Z,21.12
2019-02-25T22:45:33.079Z,21.48
2019-02-25T22:48:32.765Z,23.15
2019-02-25T22:51:02.630Z,27.87
2019-02-25T22:53:33.050Z,23.35
2019-02-25T22:56:02.323Z,24.77
2019-02-25T22:58:33.798Z,24.12
2019-02-25T23:01:09.981Z,23.85
2019-02-25T23:03:42.950Z,24.57
2019-02-25T23:06:13.298Z,23.27
2019-02-25T23:08:44.029Z,22.27
2019-02-25T23:11:14.371Z,23.07
2019-02-25T23:13:45.564Z,23.50
2019-02-25T23:16:15.706Z,24.10
2019-02-25T23:18:45.317Z,26.15
2019-02-25T23:21:23.513Z,26.42
2019-02-25T23:23:45.706Z,26.02
2019-02-25T23:26:16.904Z,25.97
2019-02-25T23:28:46.020Z,25.40
2019-02-25T23:31:15.307Z,25.02
2019-02-25T23:33:46.546Z,24.27
2019-02-25T23:36:17.542Z,23.35
2019-02-25T23:38:46.579Z,22.40
2019-02-25T23:41:16.682Z,21.57
2019-02-25T23:43:46.986Z,20.68
2019-02-25T23:46:16.978Z,20.77
2019-02-25T23:48:46.598Z,21.73
2019-02-25T23:51:17.123Z,21.80
2019-02-25T23:53:48.671Z,23.38
2019-02-25T23:56:22.151Z,23.62
2019-02-25T23:58:50.146Z,21.90
